createdAt,value
2019-03-25T00:00:24.600Z,0.00
2019-03-25T00:01:24.574Z,0.00
2019-03-25T00:02:24.574Z,0.00
2019-03-25T00:03:24.550Z,0.00
2019-03-25T00:04:24.586Z,0.00
2019-03-25T00:05:24.537Z,0.00
2019-03-25T00:06:24.520Z,0.00
2019-03-25T00:07:24.530Z,0.00
2019-03-25T00:08:24.530Z,0.00
2019-03-25T00:09:24.500Z,0.00
2019-03-25T00:10:24.540Z,0.00
2019-03-25T00:11:24.462Z,0.00
2019-03-25T00:12:24.450Z,0.00
2019-03-25T00:13:24.450Z,0.00
2019-03-25T00:14:24.474Z,0.00
2019-03-25T00:15:24.414Z,0.00
2019-03-25T00:16:24.420Z,0.00
2019-03-25T00:17:24.402Z,0.00
2019-03-25T00:18:24.390Z,0.00
2019-03-25T00:19:24.380Z,0.00
2019-03-25T00:20:24.390Z,0.00
2019-03-25T00:21:24.363Z,0.00
2019-03-25T00:22:24.391Z,0.00
2019-03-25T00:23:24.343Z,0.00
2019-03-25T00:24:37.907Z,0.00
2019-03-25T00:25:24.318Z,0.00
2019-03-25T00:26:24.306Z,0.00
2019-03-25T00:27:24.290Z,0.00
2019-03-25T00:28:24.306Z,0.00
2019-03-25T00:29:24.279Z,0.00
2019-03-25T00:30:24.263Z,0.00
2019-03-25T00:31:24.249Z,0.00
2019-03-25T00:32:24.249Z,0.00
2019-03-25T00:33:24.253Z,0.00
2019-03-25T00:34:24.214Z,0.00
2019-03-25T00:35:24.207Z,0.00
2019-03-25T00:36:24.201Z,0.00
2019-03-25T00:37:24.179Z,0.00
2019-03-25T00:38:24.179Z,0.00
2019-03-25T00:39:24.190Z,0.00
2019-03-25T00:40:24.144Z,0.00
2019-03-25T00:41:24.182Z,0.00
2019-03-25T00:42:24.145Z,0.00
2019-03-25T00:43:24.116Z,0.00
2019-03-25T00:44:24.097Z,0.00
2019-03-25T00:45:24.115Z,0.00
2019-03-25T00:46:24.078Z,0.00
2019-03-25T00:47:24.071Z,0.00
2019-03-25T00:48:24.064Z,0.00
2019-03-25T00:49:24.067Z,0.00
2019-03-25T00:50:24.042Z,0.00
2019-03-25T00:51:24.024Z,0.00
2019-03-25T00:52:24.020Z,0.00
2019-03-25T00:53:24.010Z,0.00
2019-03-25T00:54:24.017Z,0.00
2019-03-25T00:55:23.978Z,0.00
2019-03-25T00:56:23.991Z,0.00
2019-03-25T00:57:23.965Z,0.00
2019-03-25T00:58:23.944Z,0.00
2019-03-25T00:59:23.963Z,0.00
2019-03-25T01:00:23.934Z,0.00
2019-03-25T01:01:23.930Z,0.00
2019-03-25T01:02:23.917Z,0.00
2019-03-25T01:03:23.899Z,0.00
2019-03-25T01:04:23.895Z,0.00
2019-03-25T01:05:23.977Z,0.00
2019-03-25T01:06:23.865Z,0.00
2019-03-25T01:07:23.868Z,0.00
2019-03-25T01:08:23.850Z,0.00
2019-03-25T01:09:23.833Z,0.00
2019-03-25T01:10:23.842Z,0.00
2019-03-25T01:11:23.823Z,0.00
2019-03-25T01:12:26.501Z,0.00
2019-03-25T01:13:23.806Z,0.00
2019-03-25T01:14:23.783Z,0.00
2019-03-25T01:15:23.771Z,0.00
2019-03-25T01:16:23.759Z,0.00
2019-03-25T01:17:23.751Z,0.00
2019-03-25T01:18:23.745Z,0.00
2019-03-25T01:19:23.735Z,0.00
2019-03-25T01:20:23.846Z,0.00
2019-03-25T01:21:23.702Z,0.00
2019-03-25T01:22:23.707Z,0.00
2019-03-25T01:23:23.689Z,0.00
2019-03-25T01:24:23.688Z,0.00
2019-03-25T01:25:23.677Z,0.00
2019-03-25T01:26:23.644Z,0.00
2019-03-25T01:27:23.643Z,0.00
2019-03-25T01:28:23.664Z,0.00
2019-03-25T01:29:23.607Z,0.00
2019-03-25T01:30:23.621Z,0.00
2019-03-25T01:31:23.613Z,0.00
2019-03-25T01:32:23.579Z,0.00
2019-03-25T01:33:23.627Z,0.00
2019-03-25T01:34:23.577Z,0.00
2019-03-25T01:35:23.555Z,0.00
2019-03-25T01:36:23.529Z,0.00
2019-03-25T01:37:23.523Z,0.00
2019-03-25T01:38:23.995Z,0.00
2019-03-25T01:39:23.505Z,0.00
2019-03-25T01:40:23.528Z,0.00
2019-03-25T01:41:23.482Z,0.00
2019-03-25T01:42:23.489Z,0.00
2019-03-25T01:43:23.467Z,0.00
2019-03-25T01:44:23.449Z,0.00
2019-03-25T01:45:23.454Z,0.00
2019-03-25T01:46:23.452Z,0.00
2019-03-25T01:47:23.985Z,0.00
2019-03-25T01:48:23.447Z,0.00
2019-03-25T01:49:23.399Z,0.00
2019-03-25T01:50:23.404Z,0.00
2019-03-25T01:51:23.375Z,0.00
2019-03-25T01:52:23.385Z,0.00
2019-03-25T01:53:23.373Z,0.00
2019-03-25T01:54:23.345Z,0.00
2019-03-25T01:55:23.368Z,0.00
2019-03-25T01:56:23.328Z,0.00
2019-03-25T01:57:23.313Z,0.00
2019-03-25T01:58:23.367Z,0.00
2019-03-25T01:59:23.305Z,0.00
2019-03-25T02:00:23.279Z,0.00
2019-03-25T02:01:25.983Z,0.00
2019-03-25T02:02:23.263Z,0.00
2019-03-25T02:03:23.247Z,0.00
2019-03-25T02:04:23.278Z,0.00
2019-03-25T02:05:23.245Z,0.00
2019-03-25T02:06:23.241Z,0.00
2019-03-25T02:07:23.233Z,0.00
2019-03-25T02:08:23.189Z,0.00
2019-03-25T02:09:23.177Z,0.00
2019-03-25T02:10:23.182Z,0.00
2019-03-25T02:11:23.161Z,0.00
2019-03-25T02:12:25.992Z,0.00
2019-03-25T02:13:23.173Z,0.00
2019-03-25T02:14:23.117Z,0.00
2019-03-25T02:15:23.111Z,0.00
2019-03-25T02:16:23.105Z,0.00
2019-03-25T02:17:23.095Z,0.00
2019-03-25T02:18:23.111Z,0.00
2019-03-25T02:19:23.109Z,0.00
2019-03-25T02:20:26.708Z,0.00
2019-03-25T02:21:23.059Z,0.00
2019-03-25T02:22:23.047Z,0.00
2019-03-25T02:23:23.023Z,0.00
2019-03-25T02:24:23.037Z,0.00
2019-03-25T02:25:25.679Z,0.00
2019-03-25T02:26:25.479Z,0.00
2019-03-25T02:27:22.999Z,0.00
2019-03-25T02:29:22.011Z,0.00
2019-03-25T02:30:22.972Z,0.00
2019-03-25T02:31:22.950Z,0.00
2019-03-25T02:32:22.950Z,0.00
2019-03-25T02:33:22.945Z,0.00
2019-03-25T02:34:22.918Z,0.00
2019-03-25T02:35:22.908Z,0.00
2019-03-25T02:36:23.471Z,0.00
2019-03-25T02:37:22.883Z,0.00
2019-03-25T02:38:22.879Z,0.00
2019-03-25T02:39:22.858Z,0.00
2019-03-25T02:40:22.884Z,0.00
2019-03-25T02:41:22.852Z,0.00
2019-03-25T02:42:25.474Z,0.00
2019-03-25T02:43:22.814Z,0.00
2019-03-25T02:44:22.819Z,0.00
2019-03-25T02:45:22.888Z,0.00
2019-03-25T02:46:26.041Z,0.00
2019-03-25T02:47:22.786Z,0.00
2019-03-25T02:48:25.476Z,0.00
2019-03-25T02:49:22.763Z,0.00
2019-03-25T02:50:22.757Z,0.00
2019-03-25T02:51:22.720Z,0.00
2019-03-25T02:52:22.730Z,0.00
2019-03-25T02:53:22.715Z,0.00
2019-03-25T02:54:22.704Z,0.00
2019-03-25T02:56:21.694Z,0.00
2019-03-25T02:57:22.687Z,0.00
2019-03-25T02:58:22.666Z,0.00
2019-03-25T02:59:22.664Z,0.00
2019-03-25T03:00:22.626Z,0.00
2019-03-25T03:01:22.618Z,0.00
2019-03-25T03:02:22.622Z,0.00
2019-03-25T03:03:22.613Z,0.00
2019-03-25T03:04:22.604Z,0.00
2019-03-25T03:05:22.584Z,0.00
2019-03-25T03:06:22.580Z,0.00
2019-03-25T03:07:22.569Z,0.00
2019-03-25T03:08:22.551Z,0.00
2019-03-25T03:09:22.627Z,0.00
2019-03-25T03:10:22.534Z,0.00
2019-03-25T03:11:22.555Z,0.00
2019-03-25T03:12:22.507Z,0.00
2019-03-25T03:13:22.502Z,0.00
2019-03-25T03:14:22.486Z,0.00
2019-03-25T03:15:22.483Z,0.00
2019-03-25T03:16:22.458Z,0.00
2019-03-25T03:17:22.462Z,0.00
2019-03-25T03:18:22.434Z,0.00
2019-03-25T03:19:22.467Z,0.00
2019-03-25T03:20:22.416Z,0.00
2019-03-25T03:21:22.418Z,0.00
2019-03-25T03:22:22.398Z,0.00
2019-03-25T03:23:22.389Z,0.00
2019-03-25T03:24:22.415Z,0.00
2019-03-25T03:25:22.359Z,0.00
2019-03-25T03:26:22.378Z,0.00
2019-03-25T03:27:22.335Z,0.00
2019-03-25T03:28:22.349Z,0.00
2019-03-25T03:29:22.332Z,0.00
2019-03-25T03:30:24.973Z,0.00
2019-03-25T03:31:22.298Z,0.00
2019-03-25T03:32:22.276Z,0.00
2019-03-25T03:33:22.281Z,0.00
2019-03-25T03:34:22.278Z,0.00
2019-03-25T03:35:22.308Z,0.00
2019-03-25T03:36:22.253Z,0.00
2019-03-25T03:37:22.228Z,0.00
2019-03-25T03:38:22.238Z,0.00
2019-03-25T03:39:22.207Z,0.00
2019-03-25T03:40:22.233Z,0.00
2019-03-25T03:41:22.968Z,0.00
2019-03-25T03:42:22.178Z,0.00
2019-03-25T03:43:22.160Z,0.00
2019-03-25T03:44:22.155Z,0.00
2019-03-25T03:45:22.159Z,0.00
2019-03-25T03:46:22.139Z,0.00
2019-03-25T03:47:22.126Z,0.00
2019-03-25T03:48:22.110Z,0.00
2019-03-25T03:49:22.102Z,0.00
2019-03-25T03:50:22.105Z,0.00
2019-03-25T03:51:22.086Z,0.00
2019-03-25T03:52:22.070Z,0.00
2019-03-25T03:53:22.055Z,0.00
2019-03-25T03:54:22.048Z,0.00
2019-03-25T03:55:22.036Z,0.00
2019-03-25T03:56:22.047Z,0.00
2019-03-25T03:57:22.010Z,0.00
2019-03-25T03:58:22.013Z,0.00
2019-03-25T03:59:22.014Z,0.00
2019-03-25T04:00:21.980Z,0.00
2019-03-25T04:01:24.449Z,0.00
2019-03-25T04:02:21.963Z,0.00
2019-03-25T04:03:21.943Z,0.00
2019-03-25T04:04:21.934Z,0.00
2019-03-25T04:05:21.974Z,0.00
2019-03-25T04:06:21.914Z,0.00
2019-03-25T04:07:21.909Z,0.00
2019-03-25T04:08:21.921Z,0.00
2019-03-25T04:09:21.919Z,0.00
2019-03-25T04:10:21.901Z,0.00
2019-03-25T04:11:21.858Z,0.00
2019-03-25T04:12:21.864Z,0.00
2019-03-25T04:13:24.449Z,0.00
2019-03-25T04:14:21.822Z,0.00
2019-03-25T04:15:21.845Z,0.00
2019-03-25T04:16:21.813Z,0.00
2019-03-25T04:17:21.812Z,0.00
2019-03-25T04:18:21.785Z,0.00
2019-03-25T04:19:21.820Z,0.00
2019-03-25T04:20:21.753Z,0.00
2019-03-25T04:21:21.767Z,0.00
2019-03-25T04:22:21.757Z,0.00
2019-03-25T04:23:21.729Z,0.00
2019-03-25T04:24:21.744Z,0.00
2019-03-25T04:25:21.705Z,0.00
2019-03-25T04:26:28.339Z,0.00
2019-03-25T04:27:21.708Z,0.00
2019-03-25T04:28:21.673Z,0.00
2019-03-25T04:29:21.670Z,0.00
2019-03-25T04:30:21.671Z,0.00
2019-03-25T04:31:21.647Z,0.00
2019-03-25T04:32:21.630Z,0.00
2019-03-25T04:33:21.642Z,0.00
2019-03-25T04:34:21.609Z,4.00
2019-03-25T04:35:21.600Z,4.00
2019-03-25T04:36:21.599Z,0.00
2019-03-25T04:37:21.577Z,4.00
2019-03-25T04:38:21.568Z,4.00
2019-03-25T04:39:21.568Z,4.00
2019-03-25T04:40:21.578Z,4.00
2019-03-25T04:41:21.535Z,8.00
2019-03-25T04:42:21.521Z,8.00
2019-03-25T04:43:21.511Z,12.00
2019-03-25T04:44:21.516Z,8.00
2019-03-25T04:45:21.502Z,8.00
2019-03-25T04:46:21.508Z,12.00
2019-03-25T04:47:21.480Z,16.00
2019-03-25T04:48:21.456Z,16.00
2019-03-25T04:49:21.452Z,20.00
2019-03-25T04:50:21.436Z,24.00
2019-03-25T04:51:23.933Z,28.00
2019-03-25T04:52:23.931Z,32.00
2019-03-25T04:53:21.398Z,32.00
2019-03-25T04:54:21.391Z,40.00
2019-03-25T04:55:21.389Z,44.00
2019-03-25T04:56:21.379Z,52.00
2019-03-25T04:57:21.358Z,56.00
2019-03-25T04:58:21.358Z,64.00
2019-03-25T04:59:21.338Z,76.00
2019-03-25T05:00:21.335Z,80.00
2019-03-25T05:01:21.350Z,92.00
2019-03-25T05:02:21.322Z,100.00
2019-03-25T05:03:21.317Z,108.00
2019-03-25T05:04:21.313Z,116.00
2019-03-25T05:05:21.278Z,116.00
2019-03-25T05:06:21.275Z,124.00
2019-03-25T05:07:21.282Z,132.00
2019-03-25T05:08:21.263Z,140.00
2019-03-25T05:09:21.251Z,148.00
2019-03-25T05:10:21.224Z,160.00
2019-03-25T05:11:30.317Z,176.00
2019-03-25T05:12:21.204Z,188.00
2019-03-25T05:13:21.204Z,200.00
2019-03-25T05:14:21.178Z,220.00
2019-03-25T05:15:21.160Z,224.00
2019-03-25T05:16:21.158Z,236.00
2019-03-25T05:17:21.215Z,268.00
2019-03-25T05:18:21.134Z,284.00
2019-03-25T05:19:21.154Z,280.00
2019-03-25T05:20:21.117Z,272.00
2019-03-25T05:21:21.116Z,284.00
2019-03-25T05:22:21.104Z,296.00
2019-03-25T05:23:21.083Z,328.00
2019-03-25T05:24:21.060Z,348.00
2019-03-25T05:25:21.080Z,352.00
2019-03-25T05:26:21.048Z,344.00
2019-03-25T05:27:21.046Z,352.00
2019-03-25T05:28:21.023Z,372.00
2019-03-25T05:29:21.019Z,396.00
2019-03-25T05:30:23.024Z,412.00
2019-03-25T05:31:21.033Z,440.00
2019-03-25T05:32:20.984Z,460.00
2019-03-25T05:33:20.969Z,476.00
2019-03-25T05:34:20.962Z,496.00
2019-03-25T05:35:20.993Z,540.00
2019-03-25T05:36:20.942Z,584.00
2019-03-25T05:37:20.929Z,568.00
2019-03-25T05:38:20.918Z,592.00
2019-03-25T05:39:20.906Z,656.00
2019-03-25T05:40:20.895Z,732.00
2019-03-25T05:41:20.896Z,744.00
2019-03-25T05:42:20.888Z,776.00
2019-03-25T05:43:21.233Z,696.00
2019-03-25T05:44:20.862Z,648.00
2019-03-25T05:45:20.860Z,696.00
2019-03-25T05:46:20.827Z,788.00
2019-03-25T05:47:20.840Z,820.00
2019-03-25T05:48:21.446Z,812.00
2019-03-25T05:49:20.810Z,824.00
2019-03-25T05:50:20.800Z,844.00
2019-03-25T05:51:20.804Z,828.00
2019-03-25T05:52:20.789Z,848.00
2019-03-25T05:53:20.763Z,824.00
2019-03-25T05:54:20.750Z,776.00
2019-03-25T05:55:20.740Z,760.00
2019-03-25T05:56:20.734Z,772.00
2019-03-25T05:57:20.738Z,752.00
2019-03-25T05:58:20.704Z,744.00
2019-03-25T05:59:20.698Z,700.00
2019-03-25T06:00:20.686Z,696.00
2019-03-25T06:01:20.683Z,708.00
2019-03-25T06:02:20.674Z,752.00
2019-03-25T06:03:20.678Z,800.00
2019-03-25T06:04:20.631Z,804.00
2019-03-25T06:05:23.409Z,884.00
2019-03-25T06:06:20.608Z,972.00
2019-03-25T06:07:20.622Z,1012.00
2019-03-25T06:08:20.595Z,928.00
2019-03-25T06:09:20.597Z,812.00
2019-03-25T06:10:20.614Z,824.00
2019-03-25T06:11:20.562Z,792.00
2019-03-25T06:12:20.552Z,832.00
2019-03-25T06:13:20.548Z,840.00
2019-03-25T06:14:20.536Z,848.00
2019-03-25T06:15:20.548Z,844.00
2019-03-25T06:16:20.547Z,860.00
2019-03-25T06:17:20.502Z,876.00
2019-03-25T06:18:23.412Z,884.00
2019-03-25T06:19:20.478Z,876.00
2019-03-25T06:20:20.465Z,908.00
2019-03-25T06:21:20.472Z,940.00
2019-03-25T06:23:19.478Z,964.00
2019-03-25T06:24:20.421Z,988.00
2019-03-25T06:25:20.432Z,1020.00
2019-03-25T06:26:20.389Z,1068.00
2019-03-25T06:27:20.389Z,1096.00
2019-03-25T06:28:20.376Z,1120.00
2019-03-25T06:29:20.378Z,1144.00
2019-03-25T06:30:20.370Z,1112.00
2019-03-25T06:31:20.349Z,928.00
2019-03-25T06:32:20.334Z,908.00
2019-03-25T06:33:20.337Z,1160.00
2019-03-25T06:34:22.913Z,1168.00
2019-03-25T06:35:20.300Z,1164.00
2019-03-25T06:36:20.456Z,948.00
2019-03-25T06:37:20.326Z,908.00
2019-03-25T06:38:20.268Z,904.00
2019-03-25T06:39:20.256Z,928.00
2019-03-25T06:40:20.247Z,1052.00
2019-03-25T06:41:20.271Z,1460.00
2019-03-25T06:42:20.247Z,2460.00
2019-03-25T06:43:20.221Z,2352.00
2019-03-25T06:44:20.336Z,2652.00
2019-03-25T06:45:22.896Z,2252.00
2019-03-25T06:46:22.226Z,2012.00
2019-03-25T06:47:20.175Z,2120.00
2019-03-25T06:49:19.895Z,2084.00
2019-03-25T06:50:20.134Z,1664.00
2019-03-25T06:51:20.148Z,1912.00
2019-03-25T06:52:20.120Z,1976.00
2019-03-25T06:53:20.106Z,1952.00
2019-03-25T06:54:20.092Z,1684.00
2019-03-25T06:55:20.079Z,1700.00
2019-03-25T06:56:20.095Z,1660.00
2019-03-25T06:57:25.437Z,1508.00
2019-03-25T06:58:20.162Z,1416.00
2019-03-25T06:59:20.142Z,1124.00
2019-03-25T07:01:19.128Z,1300.00
2019-03-25T07:02:22.937Z,1412.00
2019-03-25T07:03:20.096Z,1676.00
2019-03-25T07:04:20.047Z,1676.00
2019-03-25T07:05:19.988Z,1244.00
2019-03-25T07:06:20.004Z,1460.00
2019-03-25T07:07:19.985Z,1684.00
2019-03-25T07:08:19.991Z,1288.00
2019-03-25T07:09:19.971Z,1020.00
2019-03-25T07:10:25.901Z,968.00
2019-03-25T07:11:19.921Z,912.00
2019-03-25T07:12:19.925Z,1584.00
2019-03-25T07:13:19.903Z,2052.00
2019-03-25T07:14:19.879Z,2452.00
2019-03-25T07:15:19.874Z,2728.00
2019-03-25T07:16:19.884Z,2264.00
2019-03-25T07:17:19.849Z,2112.00
2019-03-25T07:18:19.846Z,2036.00
2019-03-25T07:19:19.827Z,1888.00
2019-03-25T07:20:19.816Z,1768.00
2019-03-25T07:21:20.630Z,2020.00
2019-03-25T07:22:19.819Z,2424.00
2019-03-25T07:24:18.766Z,2652.00
2019-03-25T07:25:20.402Z,2676.00
2019-03-25T07:26:19.766Z,2440.00
2019-03-25T07:27:19.919Z,2184.00
2019-03-25T07:28:19.736Z,2168.00
2019-03-25T07:29:19.712Z,2308.00
2019-03-25T07:30:19.707Z,2156.00
2019-03-25T07:31:19.820Z,2176.00
2019-03-25T07:32:19.786Z,2256.00
2019-03-25T07:33:22.508Z,2424.00
2019-03-25T07:34:19.683Z,2528.00
2019-03-25T07:35:19.688Z,2892.00
2019-03-25T07:36:22.410Z,2356.00
2019-03-25T07:37:23.686Z,2108.00
2019-03-25T07:38:19.624Z,2648.00
2019-03-25T07:39:19.606Z,2636.00
2019-03-25T07:40:19.596Z,2416.00
2019-03-25T07:41:19.623Z,2872.00
2019-03-25T07:42:19.602Z,2828.00
2019-03-25T07:43:19.684Z,2572.00
2019-03-25T07:44:22.577Z,2476.00
2019-03-25T07:45:19.550Z,2608.00
2019-03-25T07:46:19.525Z,2804.00
2019-03-25T07:47:21.491Z,2996.00
2019-03-25T07:48:19.566Z,3148.00
2019-03-25T07:49:19.508Z,3212.00
2019-03-25T07:50:19.501Z,3508.00
2019-03-25T07:51:19.552Z,3872.00
2019-03-25T07:52:19.486Z,4104.00
2019-03-25T07:53:19.475Z,4036.00
2019-03-25T07:54:19.456Z,3836.00
2019-03-25T07:55:19.450Z,3188.00
2019-03-25T07:56:19.468Z,2976.00
2019-03-25T07:57:19.406Z,3192.00
2019-03-25T07:58:19.401Z,3432.00
2019-03-25T07:59:20.258Z,3596.00
2019-03-25T08:00:19.376Z,3364.00
2019-03-25T08:01:19.366Z,3164.00
2019-03-25T08:02:19.381Z,3528.00
2019-03-25T08:03:19.346Z,3940.00
2019-03-25T08:04:19.361Z,4304.00
2019-03-25T08:05:19.367Z,3956.00
2019-03-25T08:06:29.884Z,3648.00
2019-03-25T08:07:19.881Z,3444.00
2019-03-25T08:08:19.310Z,3044.00
2019-03-25T08:09:19.286Z,3308.00
2019-03-25T08:10:19.284Z,3940.00
2019-03-25T08:11:21.258Z,2944.00
2019-03-25T08:12:19.241Z,2060.00
2019-03-25T08:13:22.027Z,1812.00
2019-03-25T08:14:19.241Z,1520.00
2019-03-25T08:15:19.211Z,1544.00
2019-03-25T08:16:19.387Z,1692.00
2019-03-25T08:17:19.195Z,2008.00
2019-03-25T08:18:19.175Z,2828.00
2019-03-25T08:19:19.176Z,3304.00
2019-03-25T08:20:19.161Z,2608.00
2019-03-25T08:21:19.147Z,1792.00
2019-03-25T08:22:19.253Z,2092.00
2019-03-25T08:23:19.129Z,2036.00
2019-03-25T08:24:19.109Z,2192.00
2019-03-25T08:25:19.144Z,2580.00
2019-03-25T08:26:19.222Z,2960.00
2019-03-25T08:27:19.172Z,2632.00
2019-03-25T08:28:19.065Z,2572.00
2019-03-25T08:29:19.055Z,2212.00
2019-03-25T08:30:19.117Z,1956.00
2019-03-25T08:31:19.039Z,1668.00
2019-03-25T08:32:19.158Z,1600.00
2019-03-25T08:33:19.012Z,1408.00
2019-03-25T08:34:21.882Z,1596.00
2019-03-25T08:35:18.999Z,1528.00
2019-03-25T08:36:18.978Z,1976.00
2019-03-25T08:37:18.963Z,2256.00
2019-03-25T08:38:18.993Z,2284.00
2019-03-25T08:39:19.999Z,2388.00
2019-03-25T08:40:18.999Z,2516.00
2019-03-25T08:41:19.102Z,2888.00
2019-03-25T08:42:18.979Z,2956.00
2019-03-25T08:43:18.898Z,3188.00
2019-03-25T08:44:20.548Z,3052.00
2019-03-25T08:45:18.882Z,2816.00
2019-03-25T08:46:18.886Z,2512.00
2019-03-25T08:47:19.029Z,2276.00
2019-03-25T08:48:18.851Z,2292.00
2019-03-25T08:49:18.844Z,2372.00
2019-03-25T08:50:18.826Z,2608.00
2019-03-25T08:51:18.856Z,2588.00
2019-03-25T08:52:18.817Z,2768.00
2019-03-25T08:53:18.790Z,2968.00
2019-03-25T08:54:18.994Z,2940.00
2019-03-25T08:55:18.960Z,2996.00
2019-03-25T08:56:18.767Z,2900.00
2019-03-25T08:57:18.799Z,2572.00
2019-03-25T08:58:18.757Z,2520.00
2019-03-25T08:59:19.392Z,2412.00
2019-03-25T09:00:19.006Z,2376.00
2019-03-25T09:01:18.711Z,2460.00
2019-03-25T09:02:18.703Z,2736.00
2019-03-25T09:03:18.709Z,2616.00
2019-03-25T09:04:18.688Z,1836.00
2019-03-25T09:05:18.699Z,1760.00
2019-03-25T09:06:18.652Z,1896.00
2019-03-25T09:07:18.896Z,2084.00
2019-03-25T09:08:18.864Z,1896.00
2019-03-25T09:09:18.629Z,2296.00
2019-03-25T09:10:21.356Z,1924.00
2019-03-25T09:11:21.357Z,1768.00
2019-03-25T09:12:18.600Z,1456.00
2019-03-25T09:13:21.893Z,1284.00
2019-03-25T09:14:18.571Z,948.00
2019-03-25T09:15:18.564Z,824.00
2019-03-25T09:16:18.585Z,824.00
2019-03-25T09:17:18.558Z,860.00
2019-03-25T09:18:18.544Z,912.00
2019-03-25T09:19:18.511Z,928.00
2019-03-25T09:20:18.502Z,940.00
2019-03-25T09:21:19.352Z,956.00
2019-03-25T09:22:18.553Z,872.00
2019-03-25T09:23:18.473Z,916.00
2019-03-25T09:24:18.522Z,924.00
2019-03-25T09:25:18.473Z,984.00
2019-03-25T09:26:18.485Z,1040.00
2019-03-25T09:27:18.436Z,1044.00
2019-03-25T09:28:24.242Z,1004.00
2019-03-25T09:29:18.402Z,1056.00
2019-03-25T09:30:19.344Z,1536.00
2019-03-25T09:31:18.384Z,1840.00
2019-03-25T09:32:18.369Z,2452.00
2019-03-25T09:33:18.376Z,2492.00
2019-03-25T09:34:18.478Z,2456.00
2019-03-25T09:35:18.340Z,2420.00
2019-03-25T09:36:18.376Z,2704.00
2019-03-25T09:37:18.409Z,2048.00
2019-03-25T09:38:18.459Z,2856.00
2019-03-25T09:39:18.402Z,4004.00
2019-03-25T09:40:18.465Z,4160.00
2019-03-25T09:41:18.340Z,4436.00
2019-03-25T09:42:18.390Z,5672.00
2019-03-25T09:43:18.297Z,6464.00
2019-03-25T09:44:18.486Z,5540.00
2019-03-25T09:45:18.257Z,5348.00
2019-03-25T09:46:18.318Z,5220.00
2019-03-25T09:47:18.271Z,5364.00
2019-03-25T09:48:18.290Z,5560.00
2019-03-25T09:49:18.183Z,4836.00
2019-03-25T09:50:18.197Z,4044.00
2019-03-25T09:51:18.195Z,3684.00
2019-03-25T09:52:18.223Z,3276.00
2019-03-25T09:53:18.847Z,2376.00
2019-03-25T09:54:18.187Z,2832.00
2019-03-25T09:55:18.218Z,2960.00
2019-03-25T09:56:18.222Z,3820.00
2019-03-25T09:57:19.536Z,4684.00
2019-03-25T09:58:18.137Z,5060.00
2019-03-25T09:59:18.129Z,5140.00
2019-03-25T10:00:18.133Z,4916.00
2019-03-25T10:01:18.110Z,3280.00
2019-03-25T10:02:18.149Z,2756.00
2019-03-25T10:03:18.049Z,2236.00
2019-03-25T10:04:20.139Z,1772.00
2019-03-25T10:05:18.019Z,1800.00
2019-03-25T10:06:18.003Z,2420.00
2019-03-25T10:07:18.049Z,3408.00
2019-03-25T10:08:20.851Z,5232.00
2019-03-25T10:09:17.969Z,3600.00
2019-03-25T10:10:17.963Z,3000.00
2019-03-25T10:11:17.953Z,2628.00
2019-03-25T10:12:17.958Z,4572.00
2019-03-25T10:13:17.989Z,3960.00
2019-03-25T10:14:18.109Z,4984.00
2019-03-25T10:15:19.221Z,4248.00
2019-03-25T10:16:17.915Z,5452.00
2019-03-25T10:17:17.951Z,7560.00
2019-03-25T10:18:17.910Z,8340.00
2019-03-25T10:19:18.218Z,8948.00
2019-03-25T10:20:18.172Z,6892.00
2019-03-25T10:21:17.868Z,5212.00
2019-03-25T10:22:17.847Z,3820.00
2019-03-25T10:23:17.825Z,2788.00
2019-03-25T10:24:17.849Z,2508.00
2019-03-25T10:25:17.809Z,2052.00
2019-03-25T10:26:17.786Z,1364.00
2019-03-25T10:27:17.771Z,944.00
2019-03-25T10:28:18.352Z,820.00
2019-03-25T10:29:17.761Z,668.00
2019-03-25T10:30:17.766Z,544.00
2019-03-25T10:31:17.734Z,516.00
2019-03-25T10:32:17.783Z,612.00
2019-03-25T10:33:17.709Z,728.00
2019-03-25T10:34:17.717Z,1288.00
2019-03-25T10:35:17.725Z,1764.00
2019-03-25T10:36:17.685Z,1856.00
2019-03-25T10:37:18.340Z,2268.00
2019-03-25T10:38:19.697Z,2472.00
2019-03-25T10:39:17.672Z,2836.00
2019-03-25T10:40:17.743Z,3456.00
2019-03-25T10:41:17.638Z,4200.00
2019-03-25T10:42:17.674Z,5764.00
2019-03-25T10:43:17.598Z,5480.00
2019-03-25T10:44:17.593Z,4484.00
2019-03-25T10:45:17.582Z,4268.00
2019-03-25T10:46:17.583Z,4340.00
2019-03-25T10:47:17.576Z,3252.00
2019-03-25T10:48:17.541Z,3036.00
2019-03-25T10:49:17.582Z,2896.00
2019-03-25T10:50:17.521Z,3364.00
2019-03-25T10:51:17.558Z,4800.00
2019-03-25T10:52:18.508Z,4656.00
2019-03-25T10:53:17.490Z,5436.00
2019-03-25T10:54:17.628Z,5260.00
2019-03-25T10:55:17.467Z,2868.00
2019-03-25T10:56:17.472Z,2308.00
2019-03-25T10:57:17.483Z,2332.00
2019-03-25T10:58:18.363Z,2248.00
2019-03-25T10:59:17.480Z,2468.00
2019-03-25T11:00:17.454Z,2936.00
2019-03-25T11:01:17.505Z,2264.00
2019-03-25T11:02:17.417Z,2100.00
2019-03-25T11:03:17.388Z,2196.00
2019-03-25T11:04:17.374Z,2868.00
2019-03-25T11:05:17.378Z,4208.00
2019-03-25T11:06:17.444Z,4168.00
2019-03-25T11:07:17.410Z,3152.00
2019-03-25T11:08:17.344Z,4948.00
2019-03-25T11:09:17.363Z,6856.00
2019-03-25T11:10:17.366Z,4344.00
2019-03-25T11:11:17.404Z,4368.00
2019-03-25T11:12:17.288Z,5948.00
2019-03-25T11:13:17.513Z,5860.00
2019-03-25T11:14:17.302Z,7880.00
2019-03-25T11:15:17.308Z,4696.00
2019-03-25T11:16:17.306Z,5440.00
2019-03-25T11:17:17.266Z,6748.00
2019-03-25T11:18:17.265Z,7112.00
2019-03-25T11:19:18.091Z,6548.00
2019-03-25T11:20:17.231Z,6912.00
2019-03-25T11:21:17.204Z,5224.00
2019-03-25T11:22:17.205Z,6860.00
2019-03-25T11:23:18.965Z,7224.00
2019-03-25T11:24:17.157Z,6640.00
2019-03-25T11:25:17.933Z,4624.00
2019-03-25T11:26:17.141Z,3064.00
2019-03-25T11:27:17.129Z,3452.00
2019-03-25T11:29:16.225Z,2516.00
2019-03-25T11:30:17.136Z,2612.00
2019-03-25T11:31:17.085Z,4476.00
2019-03-25T11:32:17.080Z,5028.00
2019-03-25T11:33:17.100Z,4660.00
2019-03-25T11:34:20.416Z,4324.00
2019-03-25T11:35:17.042Z,4796.00
2019-03-25T11:36:17.032Z,6008.00
2019-03-25T11:37:17.017Z,6568.00
2019-03-25T11:38:17.063Z,6700.00
2019-03-25T11:39:17.078Z,7184.00
2019-03-25T11:40:16.977Z,6804.00
2019-03-25T11:41:16.989Z,5136.00
2019-03-25T11:42:16.974Z,3816.00
2019-03-25T11:43:16.977Z,4584.00
2019-03-25T11:44:16.964Z,5112.00
2019-03-25T11:45:16.934Z,2536.00
2019-03-25T11:46:16.931Z,1728.00
2019-03-25T11:47:20.182Z,1592.00
2019-03-25T11:48:17.473Z,1520.00
2019-03-25T11:49:16.895Z,1912.00
2019-03-25T11:50:16.980Z,1752.00
2019-03-25T11:51:16.925Z,1552.00
2019-03-25T11:52:16.845Z,1676.00
2019-03-25T11:53:16.893Z,2384.00
2019-03-25T11:54:16.848Z,3280.00
2019-03-25T11:55:17.799Z,4196.00
2019-03-25T11:56:16.832Z,6064.00
2019-03-25T11:57:16.818Z,8580.00
2019-03-25T11:58:16.842Z,8632.00
2019-03-25T11:59:18.794Z,6836.00
2019-03-25T12:00:16.768Z,6224.00
2019-03-25T12:01:16.752Z,6508.00
2019-03-25T12:02:17.809Z,6556.00
2019-03-25T12:03:16.755Z,5040.00
2019-03-25T12:04:16.727Z,4664.00
2019-03-25T12:05:16.768Z,4972.00
2019-03-25T12:06:16.730Z,4816.00
2019-03-25T12:07:16.696Z,5940.00
2019-03-25T12:08:16.690Z,5088.00
2019-03-25T12:09:16.685Z,3756.00
2019-03-25T12:10:16.801Z,2920.00
2019-03-25T12:11:16.724Z,4020.00
2019-03-25T12:12:16.639Z,4028.00
2019-03-25T12:13:16.619Z,6596.00
2019-03-25T12:14:16.618Z,7340.00
2019-03-25T12:15:16.888Z,7864.00
2019-03-25T12:16:16.701Z,5032.00
2019-03-25T12:17:16.582Z,3596.00
2019-03-25T12:19:16.509Z,2568.00
2019-03-25T12:20:16.584Z,1744.00
2019-03-25T12:21:16.594Z,1440.00
2019-03-25T12:22:16.528Z,1932.00
2019-03-25T12:23:25.755Z,2696.00
2019-03-25T12:24:16.515Z,3532.00
2019-03-25T12:25:16.487Z,3616.00
2019-03-25T12:26:16.491Z,2280.00
2019-03-25T12:27:16.497Z,2340.00
2019-03-25T12:28:16.457Z,3224.00
2019-03-25T12:29:16.460Z,4256.00
2019-03-25T12:30:16.474Z,4240.00
2019-03-25T12:31:16.432Z,4192.00
2019-03-25T12:32:16.407Z,5168.00
2019-03-25T12:33:16.399Z,5756.00
2019-03-25T12:34:16.417Z,5484.00
2019-03-25T12:35:16.381Z,4888.00
2019-03-25T12:36:16.412Z,3036.00
2019-03-25T12:37:16.367Z,1788.00
2019-03-25T12:38:16.390Z,1484.00
2019-03-25T12:39:16.364Z,1564.00
2019-03-25T12:40:16.334Z,1456.00
2019-03-25T12:41:16.306Z,1616.00
2019-03-25T12:42:16.332Z,1752.00
2019-03-25T12:43:16.294Z,1940.00